Terminal Aerodrome Forecast
Issued by NWS Sterling, VA

Home | Current Version | Previous Version | Text Only | Print | Product List | Glossary On
Versions: 1 2 3 4 5 6 7 8 9 10 11 12 13
429
FTUS41 KLWX 282322
TAFCHO
TAF
KCHO 282322Z 2900/2924 17006KT P6SM FEW040
     FM290200 17004KT P6SM FEW250
     FM290500 00000KT P6SM SCT250
     FM290900 00000KT 5SM BR BKN130
     FM291200 00000KT 6SM BR BKN120
     FM291400 VRB03KT P6SM -SHRA OVC090
     FM291900 11004KT 6SM SHRA OVC045
     FM292200 09004KT 3SM SHRA BR OVC045=

USA.gov is the U.S. government's official web portal to all federal, state and local government web resources and services.